Colorado City, TX (79512)

10:56 PM CDT on June 29, 2015 (GMT -0500)
Western Texas College | | Change Station
CLOSE
Current Station
Personal Weather Station
Location: Snyder, TX
Elevation: 2321 ft
Nearby Weather Stations

Elev 2321 ft 32.68 °N, 100.91 °W | Updated 1 minute ago

Clear
Clear
80.6 °F
Feels Like 78 °F
N
3.0
Wind Variable Wind from SSE

Today
High -- | Low -- °F
--% Chance of Precip.
Yesterday
High -- | Low -- °F
Precip. -- in
6:39 AM 8:54 PM
Waxing Gibbous, 95% visible
Pressure 30.03 in
Visibility 10.0 miles
Clouds Clear
Heat Index 78 °F
Dew Point 7 °F
Humidity 6%
Rainfall in
Snow Depth Not available.
UV 0 out of 12
Pollen 4.10 out of 12
Air Quality Not available.
Flu Activity Local Activity
METAR KSWW 300335Z AUTO 18006KT 10SM CLR 27/18 A3003 RMK AO2 LTG DSNT SE T02740181

More Conditions Fewer Conditions

Pressure 30.03 in
Visibility 10.0 miles
Clouds Clear
Heat Index 78 °F
Dew Point 7 °F
Humidity 6%
Rainfall in
Snow Depth Not available.
UV 0 out of 12
Pollen 4.10 out of 12
Air Quality Not available.
Flu Activity Local Activity
METAR KSWW 300335Z AUTO 18006KT 10SM CLR 27/18 A3003 RMK AO2 LTG DSNT SE T02740181

More Conditions Fewer Conditions

10-Day Weather Forecast

×

Almanac

Astronomy

Jun. 29, 2015 Rise Set
Actual Time
Civil Twilight
Nautical Twilight
Astronomical Twilight
Moon
Length of Visible Light
Length of Day
Tomorrow will be .
, % of the Moon is Illuminated

Today's Extremes

State Highs State Lows

Community

WunderPhotos

Upload Photos

1,833,956 photos uploaded!

WunderBlogs® & News

Nearby

Air Quality

  Air Quality AQ Index Pollutant
Not available.

Snow Depth

Station Depth Elevation

Earthquake Activity

City Distance Mag. Time & Date
Minimum magnitude displayed is 2.5.

Coastal Water Temperatures

Place Temperature

Stations

Nearby Weather Stations

Station Location Temp. Windchill Dew Point Humidity Wind Precip. Elev Updated Type